Time;durP1;ratioP1;P1;durP2;ratioP2;P2;SDS_P1;SDS_P2;PMS_P1;PMS_P2;Temp;Humidity;BMP_temperature;BMP_pressure;BME280_temperature;BME280_humidity;BME280_pressure;Samples;Min_cycle;Max_cycle;Signal;HPM_P1;HPM_P2
2023/10/11 04:49:21;;;;;;;;;;;;;;;-1.55;76.63;101389.23;109933;1272;23314;-42
2023/10/11 04:51:49;;;;;;;;;;;;;;;-1.62;76.79;101395.83;109987;1268;22512;-43
2023/10/11 04:54:18;;;;;;;;;;;;;;;-1.55;77.21;101394.16;110051;1272;22452;-43
2023/10/11 05:02:33;;;;;;;;;;;;;;;-1.23;76.65;101407.58;109466;1277;23197;-47
2023/10/11 05:04:59;;;;;;;;;;;;;;;-1.11;76.54;101414.88;109464;1280;22484;-41
2023/10/11 05:07:28;;;;;;;;;;;;;;;-0.98;76.34;101414.88;109398;1279;23438;-41
2023/10/11 05:10:18;;;;;;;;;;;;;;;-0.84;76.23;101418.67;109439;1276;22513;-47
2023/10/11 05:13:05;;;;;;;;;;;;;;;-0.75;75.96;101421.63;109376;1273;22536;-42
2023/10/11 05:15:42;;;;;;;;;;;;;;;-0.69;76.03;101426.48;109461;1277;23315;-42
2023/10/11 05:18:09;;;;;;;;;;;;;;;-0.59;76.30;101427.61;109493;1273;22518;-42
2023/10/11 05:23:11;;;;;;;;;;;;;;;-0.38;76.22;101421.90;109354;1281;22466;-47
2023/10/11 05:25:59;;;;;;;;;;;;;;;-0.23;76.49;101424.88;109264;1280;22710;-47
2023/10/11 05:28:27;;;;;;;;;;;;;;;-0.10;76.38;101426.21;108786;1283;22964;-42
2023/10/11 05:33:57;;;;;;;;;;;;;;;0.07;76.87;101433.34;108933;1280;22516;-47
2023/10/11 05:36:51;;;;;;;;;;;;;;;0.24;77.26;101432.17;108769;1280;22525;-49
2023/10/11 05:51:59;;;;;;;;;;;;;;;1.19;77.54;101440.05;109580;1272;22605;-42
2023/10/11 05:54:45;;;;;;;;;;;;;;;1.24;77.49;101441.90;109546;1272;22510;-50
2023/10/11 05:57:27;;;;;;;;;;;;;;;1.28;77.76;101448.29;109711;1271;22676;-50
2023/10/11 06:00:49;;;;;;;;;;;;;;;1.34;78.14;101451.56;109518;1271;22500;-50
2023/10/11 06:03:28;;;;;;;;;;;;;;;1.41;78.18;101454.83;109087;1272;22921;-50
2023/10/11 06:06:32;;;;;;;;;;;;;;;1.51;78.38;101459.89;109383;1271;22650;-48
2023/10/11 06:09:05;;;;;;;;;;;;;;;1.62;78.51;101459.45;109540;1272;22541;-49
2023/10/11 06:11:36;;;;;;;;;;;;;;;1.70;79.04;101461.45;109492;1264;22995;-49
2023/10/11 06:14:21;;;;;;;;;;;;;;;1.81;79.30;101462.89;109248;1272;23337;-49
2023/10/11 06:16:57;;;;;;;;;;;;;;;1.91;79.64;101462.88;109402;1278;23444;-40
2023/10/11 06:19:35;;;;;;;;;;;;;;;2.05;79.92;101465.37;109414;1272;22894;-42
2023/10/11 06:22:28;;;;;;;;;;;;;;;2.25;80.20;101463.48;109192;1272;23243;-48
2023/10/11 06:25:07;;;;;;;;;;;;;;;2.42;80.28;101462.11;109633;1261;22523;-48
2023/10/11 06:30:21;;;;;;;;;;;;;;;2.78;80.22;101454.15;109603;1272;22506;-43
2023/10/11 06:32:50;;;;;;;;;;;;;;;2.95;80.31;101444.79;109348;1277;22996;-48
2023/10/11 06:35:25;;;;;;;;;;;;;;;3.12;79.99;101446.83;109582;1273;22512;-42
2023/10/11 06:37:55;;;;;;;;;;;;;;;3.32;79.69;101447.97;109775;1268;22510;-41
2023/10/11 06:40:47;;;;;;;;;;;;;;;3.56;79.62;101440.83;109521;1261;22638;-48
2023/10/11 06:43:34;;;;;;;;;;;;;;;3.80;79.24;101440.88;109357;1278;22954;-41
2023/10/11 06:49:47;;;;;;;;;;;;;;;4.42;78.93;101441.55;109701;1271;22995;-42
2023/10/11 06:52:44;;;;;;;;;;;;;;;4.80;77.67;101441.44;109732;1275;22458;-48
2023/10/11 06:57:45;;;;;;;;;;;;;;;5.35;76.37;101449.20;109722;1272;22450;-47
2023/10/11 07:00:23;;;;;;;;;;;;;;;5.63;74.58;101455.67;109616;1265;22445;-41
2023/10/11 07:02:50;;;;;;;;;;;;;;;5.85;73.30;101456.83;109655;1269;23855;-47
2023/10/11 07:29:16;;;;;;;;;;;;;;;7.50;63.37;101455.23;109564;1265;23222;-42
2023/10/11 07:31:49;;;;;;;;;;;;;;;7.65;62.70;101457.27;109796;1272;23061;-40
2023/10/11 07:34:29;;;;;;;;;;;;;;;7.81;61.33;101459.98;109842;1269;23276;-42
2023/10/11 07:37:11;;;;;;;;;;;;;;;7.90;60.02;101459.38;109699;1272;22453;-46
2023/10/11 07:40:09;;;;;;;;;;;;;;;7.97;59.83;101458.19;109837;1272;23322;-40
2023/10/11 07:42:44;;;;;;;;;;;;;;;8.09;59.44;101453.35;109628;1272;22470;-41
2023/10/11 07:45:37;;;;;;;;;;;;;;;8.27;58.14;101447.58;109777;1272;22493;-41
2023/10/11 07:48:04;;;;;;;;;;;;;;;8.40;56.96;101445.35;109876;1273;22666;-41
2023/10/11 07:50:32;;;;;;;;;;;;;;;8.48;55.69;101451.83;109916;1270;22579;-48
2023/10/11 07:53:02;;;;;;;;;;;;;;;8.57;55.64;101454.86;109779;1271;22512;-41
2023/10/11 07:55:38;;;;;;;;;;;;;;;8.67;54.80;101455.30;109990;1270;23021;-48
2023/10/11 07:58:08;;;;;;;;;;;;;;;8.73;54.05;101455.09;109968;1268;22607;-41
2023/10/11 08:00:41;;;;;;;;;;;;;;;8.80;54.26;101450.05;109973;1268;22459;-42
2023/10/11 08:03:11;;;;;;;;;;;;;;;8.93;53.83;101452.49;109720;1275;23234;-41
2023/10/11 08:05:47;;;;;;;;;;;;;;;9.11;52.97;101453.64;109805;1272;22626;-48
2023/10/11 08:08:24;;;;;;;;;;;;;;;9.30;52.41;101448.84;109415;1272;22651;-41
2023/10/11 08:10:54;;;;;;;;;;;;;;;9.45;52.10;101451.29;109558;1274;22506;-48
2023/10/11 08:13:27;;;;;;;;;;;;;;;9.57;51.72;101450.17;109745;1275;22503;-42
2023/10/11 08:16:05;;;;;;;;;;;;;;;9.61;51.57;101454.08;109711;1272;23459;-48
2023/10/11 08:18:36;;;;;;;;;;;;;;;9.68;51.62;101450.93;109695;1273;23051;-48
2023/10/11 08:21:05;;;;;;;;;;;;;;;9.81;51.50;101446.85;109709;1273;23448;-48
2023/10/11 08:23:33;;;;;;;;;;;;;;;9.92;51.37;101442.38;109632;1271;23212;-47
2023/10/11 08:26:05;;;;;;;;;;;;;;;10.02;50.70;101442.42;109849;1272;23251;-39
2023/10/11 08:28:34;;;;;;;;;;;;;;;10.10;50.58;101442.77;109753;1262;23832;-48
2023/10/11 08:31:02;;;;;;;;;;;;;;;10.17;49.96;101443.59;109866;1266;22504;-41
2023/10/11 08:33:32;;;;;;;;;;;;;;;10.24;49.45;101447.40;109882;1275;23508;-47
2023/10/11 08:35:58;;;;;;;;;;;;;;;10.26;49.13;101441.70;109803;1269;22459;-48
2023/10/11 08:38:27;;;;;;;;;;;;;;;10.29;49.40;101440.38;109787;1269;23200;-43
2023/10/11 08:41:00;;;;;;;;;;;;;;;10.39;49.22;101438.46;109863;1279;22778;-51
2023/10/11 08:43:28;;;;;;;;;;;;;;;10.52;49.00;101441.86;109825;1262;23757;-49
2023/10/11 08:46:05;;;;;;;;;;;;;;;10.69;48.44;101442.52;109785;1265;22576;-48
2023/10/11 08:48:38;;;;;;;;;;;;;;;10.82;48.08;101447.27;109899;1272;22521;-48
2023/10/11 08:51:11;;;;;;;;;;;;;;;10.91;47.89;101446.38;109868;1278;23012;-42
2023/10/11 08:53:44;;;;;;;;;;;;;;;11.03;47.49;101446.92;109893;1270;23251;-41
2023/10/11 08:56:14;;;;;;;;;;;;;;;11.08;47.51;101448.92;109816;1269;23490;-42
2023/10/11 08:58:41;;;;;;;;;;;;;;;11.11;47.27;101447.22;109946;1266;22444;-42
2023/10/11 09:01:09;;;;;;;;;;;;;;;11.14;47.26;101449.38;109860;1272;22984;-41
2023/10/11 09:03:42;;;;;;;;;;;;;;;11.22;47.20;101441.98;109594;1260;22568;-42
2023/10/11 09:06:24;;;;;;;;;;;;;;;11.34;47.26;101442.00;109813;1272;22434;-47
2023/10/11 09:08:51;;;;;;;;;;;;;;;11.43;46.64;101437.42;109866;1272;22861;-42
2023/10/11 09:11:32;;;;;;;;;;;;;;;11.45;46.52;101434.13;109836;1262;22446;-41
2023/10/11 09:14:22;;;;;;;;;;;;;;;11.47;46.62;101433.11;109604;1275;22505;-41
2023/10/11 09:16:57;;;;;;;;;;;;;;;11.60;46.43;101431.36;109683;1273;22596;-48
2023/10/11 09:19:24;;;;;;;;;;;;;;;11.69;45.99;101430.27;109739;1272;23356;-48
2023/10/11 09:22:04;;;;;;;;;;;;;;;11.73;45.73;101425.78;109504;1275;22514;-40
2023/10/11 09:24:38;;;;;;;;;;;;;;;11.80;45.68;101423.77;109793;1268;22954;-47
2023/10/11 09:29:43;;;;;;;;;;;;;;;11.86;44.79;101419.51;109895;1268;23339;-40
2023/10/11 09:32:27;;;;;;;;;;;;;;;11.92;45.06;101416.27;109525;1278;23359;-47
2023/10/11 09:35:26;;;;;;;;;;;;;;;11.99;43.97;101413.71;109636;1271;22547;-48
2023/10/11 09:37:59;;;;;;;;;;;;;;;11.99;44.10;101415.81;109828;1272;23806;-47
2023/10/11 09:40:34;;;;;;;;;;;;;;;12.01;43.77;101415.51;109800;1266;22822;-48
2023/10/11 09:43:08;;;;;;;;;;;;;;;12.06;43.76;101408.55;109627;1272;22525;-47
2023/10/11 09:45:52;;;;;;;;;;;;;;;12.11;43.23;101407.73;109634;1272;22582;-47
2023/10/11 09:48:22;;;;;;;;;;;;;;;12.06;43.32;101408.38;109899;1271;23066;-48
2023/10/11 09:50:49;;;;;;;;;;;;;;;12.00;43.39;101401.48;109610;1274;23208;-47
2023/10/11 09:53:19;;;;;;;;;;;;;;;12.01;43.68;101399.75;109765;1272;22534;-48
2023/10/11 09:56:15;;;;;;;;;;;;;;;12.18;43.62;101400.27;109332;1272;23469;-46
2023/10/11 09:58:57;;;;;;;;;;;;;;;12.49;43.21;101394.67;109556;1270;23765;-41
2023/10/11 10:01:32;;;;;;;;;;;;;;;12.81;42.03;101390.22;109516;1275;22557;-40
2023/10/11 10:04:05;;;;;;;;;;;;;;;13.07;41.47;101387.45;109683;1272;22639;-40
2023/10/11 10:06:33;;;;;;;;;;;;;;;13.34;40.72;101385.90;109642;1272;22695;-47
2023/10/11 10:09:16;;;;;;;;;;;;;;;13.64;40.06;101387.29;109612;1271;22600;-43
2023/10/11 10:12:11;;;;;;;;;;;;;;;14.10;39.45;101388.52;109662;1271;22488;-48
2023/10/11 10:14:41;;;;;;;;;;;;;;;14.66;38.46;101381.96;109681;1272;23037;-49
2023/10/11 10:17:11;;;;;;;;;;;;;;;15.16;37.22;101379.84;109866;1259;23561;-46
2023/10/11 10:19:43;;;;;;;;;;;;;;;15.57;35.70;101382.90;109804;1276;23000;-47
2023/10/11 10:22:10;;;;;;;;;;;;;;;15.82;35.16;101381.25;109885;1271;22934;-49
2023/10/11 10:24:37;;;;;;;;;;;;;;;16.05;34.77;101376.02;109683;1274;23729;-42
2023/10/11 10:27:22;;;;;;;;;;;;;;;16.43;34.68;101368.92;109866;1275;23054;-42
2023/10/11 10:29:58;;;;;;;;;;;;;;;17.10;33.70;101366.61;109779;1272;22560;-49
2023/10/11 10:32:25;;;;;;;;;;;;;;;17.74;32.89;101363.96;109925;1271;22472;-47
2023/10/11 10:35:16;;;;;;;;;;;;;;;18.26;31.77;101357.45;109822;1269;22560;-43
2023/10/11 10:37:48;;;;;;;;;;;;;;;18.56;30.69;101352.56;109933;1272;23219;-47
2023/10/11 10:40:18;;;;;;;;;;;;;;;18.65;30.73;101351.36;109912;1272;22599;-49
2023/10/11 10:43:04;;;;;;;;;;;;;;;18.78;30.29;101344.45;109969;1271;22958;-42
2023/10/11 10:45:31;;;;;;;;;;;;;;;18.90;30.05;101343.17;109853;1272;23593;-48
2023/10/11 10:48:14;;;;;;;;;;;;;;;18.98;30.02;101337.04;109816;1271;22460;-43
2023/10/11 10:50:47;;;;;;;;;;;;;;;19.02;29.57;101344.90;109982;1272;22544;-42
2023/10/11 10:53:16;;;;;;;;;;;;;;;18.82;29.51;101346.86;109862;1271;22511;-42
2023/10/11 10:55:43;;;;;;;;;;;;;;;18.46;29.74;101339.30;109839;1260;22563;-42
2023/10/11 10:58:19;;;;;;;;;;;;;;;18.19;29.95;101338.84;109862;1269;22500;-47
2023/10/11 11:00:53;;;;;;;;;;;;;;;17.86;29.85;101338.42;109817;1275;22476;-43
2023/10/11 11:03:23;;;;;;;;;;;;;;;17.48;30.46;101329.89;109667;1273;22565;-47
2023/10/11 11:05:59;;;;;;;;;;;;;;;17.30;30.69;101333.09;109753;1268;22532;-41
2023/10/11 11:08:37;;;;;;;;;;;;;;;17.15;30.74;101329.02;109782;1279;23767;-42
2023/10/11 11:15:29;;;;;;;;;;;;;;;16.45;31.27;101333.68;109910;1279;22673;-41
2023/10/11 11:22:06;;;;;;;;;;;;;;;15.67;32.21;101332.23;109695;1272;22886;-48
2023/10/11 11:24:52;;;;;;;;;;;;;;;15.37;32.65;101332.33;109766;1271;22809;-44
2023/10/11 11:27:29;;;;;;;;;;;;;;;15.06;33.18;101337.49;109821;1261;22508;-48
2023/10/11 11:30:04;;;;;;;;;;;;;;;14.79;33.76;101334.38;109706;1273;22732;-44
2023/10/11 11:32:36;;;;;;;;;;;;;;;14.64;34.11;101329.46;109770;1273;22438;-44
2023/10/11 11:35:09;;;;;;;;;;;;;;;14.49;34.44;101328.04;109785;1279;22473;-43
2023/10/11 11:37:39;;;;;;;;;;;;;;;14.34;34.51;101328.90;109865;1271;23280;-43
2023/10/11 11:40:19;;;;;;;;;;;;;;;14.23;34.77;101326.96;109905;1272;22451;-43
2023/10/11 11:42:48;;;;;;;;;;;;;;;14.16;34.67;101317.13;109991;1271;22559;-42
2023/10/11 11:45:18;;;;;;;;;;;;;;;14.06;35.07;101314.65;109961;1262;22529;-44
2023/10/11 11:47:58;;;;;;;;;;;;;;;14.08;35.25;101310.63;109978;1278;22479;-44
2023/10/11 11:50:25;;;;;;;;;;;;;;;14.16;35.23;101313.62;109950;1275;22445;-41
2023/10/11 11:52:57;;;;;;;;;;;;;;;14.13;35.21;101310.27;109999;1278;22995;-41
2023/10/11 11:55:24;;;;;;;;;;;;;;;14.03;35.57;101304.47;109891;1273;22970;-43
2023/10/11 11:57:51;;;;;;;;;;;;;;;14.00;35.77;101302.71;109910;1273;22459;-49
2023/10/11 12:02:54;;;;;;;;;;;;;;;14.03;35.57;101296.05;109712;1269;22697;-43
2023/10/11 12:05:21;;;;;;;;;;;;;;;13.96;35.75;101302.00;109891;1271;22433;-44
2023/10/11 12:07:51;;;;;;;;;;;;;;;13.94;35.96;101294.98;109924;1273;23004;-42
2023/10/11 12:10:24;;;;;;;;;;;;;;;13.98;35.95;101292.35;109868;1264;22549;-47
2023/10/11 12:12:53;;;;;;;;;;;;;;;14.03;35.64;101293.77;109832;1279;23158;-49
2023/10/11 12:15:20;;;;;;;;;;;;;;;13.98;35.85;101284.46;109582;1272;22873;-49
2023/10/11 12:17:47;;;;;;;;;;;;;;;13.95;35.91;101287.44;109621;1273;22448;-47
2023/10/11 12:20:15;;;;;;;;;;;;;;;13.95;35.76;101283.05;109642;1275;23511;-51
2023/10/11 12:22:42;;;;;;;;;;;;;;;13.96;35.92;101282.89;109767;1274;22456;-49
2023/10/11 12:25:13;;;;;;;;;;;;;;;14.00;35.79;101279.03;109866;1276;22989;-49
2023/10/11 12:27:43;;;;;;;;;;;;;;;14.00;35.77;101278.86;109975;1275;22507;-51
2023/10/11 12:30:19;;;;;;;;;;;;;;;14.00;35.60;101275.52;109951;1277;22465;-49
2023/10/11 12:32:46;;;;;;;;;;;;;;;14.01;35.76;101271.31;109954;1274;22493;-49
2023/10/11 12:35:13;;;;;;;;;;;;;;;14.06;35.60;101263.42;109781;1276;22492;-50
2023/10/11 12:37:41;;;;;;;;;;;;;;;14.06;35.26;101263.77;109973;1272;22554;-51
2023/10/11 12:40:21;;;;;;;;;;;;;;;13.99;35.45;101257.29;109694;1274;22542;-48
2023/10/11 12:42:48;;;;;;;;;;;;;;;13.94;35.43;101254.13;109874;1279;22525;-41
2023/10/11 12:45:16;;;;;;;;;;;;;;;13.93;35.44;101256.58;109879;1275;22576;-44
2023/10/11 12:47:43;;;;;;;;;;;;;;;13.95;35.07;101246.92;109967;1279;22515;-43
2023/10/11 12:50:13;;;;;;;;;;;;;;;13.92;34.94;101257.10;109928;1273;23427;-42
2023/10/11 12:52:41;;;;;;;;;;;;;;;13.86;35.30;101253.77;109932;1279;22503;-43
2023/10/11 12:55:08;;;;;;;;;;;;;;;13.87;35.31;101248.86;109771;1275;23059;-41
2023/10/11 12:57:39;;;;;;;;;;;;;;;13.97;35.38;101242.90;109943;1278;22471;-41
2023/10/11 13:02:58;;;;;;;;;;;;;;;14.11;34.48;101243.62;109929;1279;22488;-42
2023/10/11 13:05:27;;;;;;;;;;;;;;;14.14;34.40;101241.86;109964;1279;22424;-42
2023/10/11 13:07:54;;;;;;;;;;;;;;;14.22;34.43;101239.58;109953;1279;22433;-42
2023/10/11 13:10:24;;;;;;;;;;;;;;;14.29;34.19;101235.71;109979;1274;22521;-50
2023/10/11 13:12:53;;;;;;;;;;;;;;;14.35;33.99;101233.77;109943;1279;22568;-50
2023/10/11 13:15:21;;;;;;;;;;;;;;;14.37;34.07;101230.80;109947;1279;22989;-50
2023/10/11 13:17:49;;;;;;;;;;;;;;;14.37;33.53;101224.84;109933;1279;22466;-51
2023/10/11 13:20:18;;;;;;;;;;;;;;;14.30;33.60;101223.09;109990;1279;22448;-50
2023/10/11 13:22:49;;;;;;;;;;;;;;;14.19;33.40;101221.68;109956;1279;22489;-42
2023/10/11 13:25:23;;;;;;;;;;;;;;;14.05;33.74;101218.88;109995;1279;22607;-42
2023/10/11 13:28:03;;;;;;;;;;;;;;;14.00;33.94;101215.89;110048;1279;22471;-42
2023/10/11 13:30:36;;;;;;;;;;;;;;;13.92;34.12;101209.05;110004;1273;23343;-42
2023/10/11 13:33:05;;;;;;;;;;;;;;;13.89;34.39;101206.59;110041;1278;23252;-44
2023/10/11 13:35:35;;;;;;;;;;;;;;;13.98;34.37;101207.30;110010;1276;22632;-43
2023/10/11 13:38:11;;;;;;;;;;;;;;;14.11;34.26;101208.34;110052;1279;22536;-48
2023/10/11 13:40:39;;;;;;;;;;;;;;;14.15;33.96;101201.16;110027;1279;22589;-49
2023/10/11 13:43:06;;;;;;;;;;;;;;;14.08;33.98;101204.85;110039;1269;22498;-42
2023/10/11 13:45:32;;;;;;;;;;;;;;;14.00;34.11;101207.65;109989;1277;22453;-42
2023/10/11 13:48:04;;;;;;;;;;;;;;;14.01;34.36;101203.44;110017;1278;22436;-42
2023/10/11 13:50:37;;;;;;;;;;;;;;;14.16;33.96;101206.24;110054;1279;22502;-42
2023/10/11 13:53:04;;;;;;;;;;;;;;;14.21;33.56;101209.41;110049;1279;23130;-41
2023/10/11 13:55:40;;;;;;;;;;;;;;;14.14;33.53;101205.90;110023;1279;22518;-42
2023/10/11 13:58:10;;;;;;;;;;;;;;;14.06;33.86;101205.19;110025;1279;23269;-49
2023/10/11 14:05:41;;;;;;;;;;;;;;;14.28;33.82;101199.39;110018;1279;22921;-50
2023/10/11 14:08:24;;;;;;;;;;;;;;;14.40;33.64;101201.66;109952;1279;22454;-42
2023/10/11 14:10:51;;;;;;;;;;;;;;;14.47;33.53;101202.36;109979;1279;22481;-43
2023/10/11 14:13:24;;;;;;;;;;;;;;;14.81;32.95;101201.95;110028;1279;23291;-49
2023/10/11 14:15:51;;;;;;;;;;;;;;;15.12;32.66;101197.27;110084;1279;22924;-50
2023/10/11 14:18:19;;;;;;;;;;;;;;;15.16;32.58;101196.20;110019;1279;22465;-43
2023/10/11 14:20:55;;;;;;;;;;;;;;;15.13;32.44;101194.11;109940;1275;22443;-50
2023/10/11 14:23:26;;;;;;;;;;;;;;;15.13;32.43;101191.47;110003;1279;22437;-50
2023/10/11 14:25:57;;;;;;;;;;;;;;;15.43;32.19;101194.13;110003;1275;22484;-48
